Terminal Aerodrome Forecast
Issued by NWS

Home | Current Version | Previous Version | Text Only | Print | Product List | Glossary On
Versions: 1 2 3 4 5 6 7 8 9 10 11 12 13
000
FTUS42 TJSJ 130530
TAFJSJ
TAF
TJSJ 130530Z 1306/1406 11005KT P6SM FEW060
     FM131300 09010KT P6SM FEW030 SCT050
     FM132300 11005KT P6SM FEW060=

USA.gov is the U.S. government's official web portal to all federal, state and local government web resources and services.